Alda, NE (68810)

11:24 AM CST on February 09, 2016 (GMT -0600)
Riverside/Barr | | Change Station
CLOSE
Current Station
Personal Weather Station
Location: Grand Island, NE
Elevation: 1856 ft
Nearby Weather Stations

Elev 1856 ft 40.90 °N, 98.35 °W | Updated 14 seconds ago

Overcast
Overcast
24.1 °F
Feels Like 13 °F
N
12.0
Wind Variable Wind from NNE
Gusts 12.0 mph

Today
High -- | Low -- °F
--% Chance of Precip.
Yesterday
High -- | Low -- °F
Precip. -- in
Pressure 30.42 in
Visibility 10.0 miles
Clouds Overcast 7000 ft
Windchill 13 °F
Dew Point 12 °F
Humidity 58%
Rainfall 0.00 in
Snow Depth Not available.
7:35 AM 6:00 PM
New Moon, 2% visible
METAR KGRI 091653Z 34016KT 10SM OVC070 M05/M12 A3032 RMK AO2 PK WND 33028/1608 SLP299 T10501122
Pressure 30.42 in
Visibility 10.0 miles
Clouds Overcast 7000 ft
Windchill 13 °F
Dew Point 12 °F
Humidity 58%
Rainfall 0.00 in
Snow Depth Not available.
7:35 AM 6:00 PM
New Moon, 2% visible
METAR KGRI 091653Z 34016KT 10SM OVC070 M05/M12 A3032 RMK AO2 PK WND 33028/1608 SLP299 T10501122

10-Day Weather Forecast

Almanac

Astronomy

Feb. 09, 2016 Rise Set
Actual Time
Civil Twilight
Nautical Twilight
Astronomical Twilight
Moon
Length of Visible Light
Length of Day
Tomorrow will be .
, % of the Moon is Illuminated

Today's Extremes

State Highs State Lows

Community

WunderPhotos

Upload Photos

1,891,637 photos uploaded!

WunderBlog® & News

Nearby

Air Quality

  Air Quality AQ Index Pollutant
Not available.

Snow Depth

Station Depth Elevation

Earthquake Activity

City Distance Mag. Time & Date
Minimum magnitude displayed is 2.5.

Coastal Water Temperatures

Place Temperature

Stations

Nearby Weather Stations

Station Location Temp. Windchill Dew Point Humidity Wind Precip. Elev Updated Type
                   

Watches & Warnings

There are currently no watches in effect.